createdAt,value
2018-12-07T00:02:21.571Z,1.50
2018-12-07T00:04:51.089Z,1.43
2018-12-07T00:07:19.621Z,1.40
2018-12-07T00:09:48.121Z,1.63
2018-12-07T00:12:16.657Z,1.63
2018-12-07T00:14:45.549Z,1.20
2018-12-07T00:17:22.919Z,1.30
2018-12-07T00:19:51.431Z,1.30
2018-12-07T00:22:20.296Z,1.20
2018-12-07T00:24:48.796Z,1.10
2018-12-07T00:27:17.565Z,1.30
2018-12-07T00:29:47.618Z,1.20
2018-12-07T00:32:16.156Z,1.40
2018-12-07T00:34:45.390Z,1.37
2018-12-07T00:37:14.104Z,1.23
2018-12-07T00:39:42.625Z,1.40
2018-12-07T00:42:12.189Z,1.10
2018-12-07T00:44:41.303Z,1.30
2018-12-07T00:47:10.184Z,1.20
2018-12-07T00:49:39.622Z,1.23
2018-12-07T00:52:09.380Z,1.30
2018-12-07T00:54:38.133Z,1.20
2018-12-07T00:57:06.669Z,1.30
2018-12-07T00:59:35.180Z,1.40
2018-12-07T01:02:04.173Z,1.30
2018-12-07T01:04:32.851Z,1.40
2018-12-07T01:07:01.608Z,1.20
2018-12-07T01:09:31.748Z,1.20
2018-12-07T01:12:02.819Z,1.20
2018-12-07T01:14:31.720Z,1.00
2018-12-07T01:17:01.021Z,1.40
2018-12-07T01:19:29.520Z,1.10
2018-12-07T01:21:58.056Z,0.97
2018-12-07T01:24:27.959Z,1.20
2018-12-07T01:26:57.521Z,1.20
2018-12-07T01:29:26.149Z,1.00
2018-12-07T01:31:55.118Z,1.10
2018-12-07T01:34:24.510Z,1.10
2018-12-07T01:36:54.791Z,1.20
2018-12-07T01:39:23.276Z,1.00
2018-12-07T01:41:51.816Z,1.30
2018-12-07T01:44:20.321Z,1.00
2018-12-07T01:46:52.871Z,1.30
2018-12-07T01:49:21.373Z,1.10
2018-12-07T01:51:50.560Z,1.10
2018-12-07T01:54:19.069Z,1.10
2018-12-07T01:56:47.609Z,1.27
2018-12-07T01:59:16.140Z,1.17
2018-12-07T02:01:44.661Z,0.90
2018-12-07T02:04:13.275Z,1.00
2018-12-07T02:06:42.035Z,1.00
2018-12-07T02:09:10.890Z,1.03
2018-12-07T02:11:39.521Z,1.23
2018-12-07T02:14:08.013Z,1.13
2018-12-07T02:16:36.530Z,1.20
2018-12-07T02:19:05.057Z,1.00
2018-12-07T02:21:33.568Z,1.00
2018-12-07T02:24:02.099Z,0.90
2018-12-07T02:26:30.597Z,1.17
2018-12-07T02:28:59.145Z,0.90
2018-12-07T02:31:27.651Z,1.27
2018-12-07T02:33:56.186Z,1.20
2018-12-07T02:36:24.707Z,1.07
2018-12-07T02:38:53.356Z,1.00
2018-12-07T02:41:21.874Z,0.90
2018-12-07T02:43:50.933Z,0.90
2018-12-07T02:46:19.449Z,1.00
2018-12-07T02:48:47.985Z,1.00
2018-12-07T02:51:16.522Z,0.87
2018-12-07T02:53:45.039Z,0.90
2018-12-07T02:56:13.540Z,0.90
2018-12-07T02:58:42.081Z,1.00
2018-12-07T03:01:10.900Z,0.90
2018-12-07T03:03:39.416Z,1.20
2018-12-07T03:06:07.937Z,1.13
2018-12-07T03:08:36.731Z,1.10
2018-12-07T03:11:06.281Z,0.80
2018-12-07T03:13:36.195Z,0.80
2018-12-07T03:16:04.726Z,1.27
2018-12-07T03:18:33.592Z,1.07
2018-12-07T03:21:02.697Z,0.90
2018-12-07T03:23:31.316Z,0.83
2018-12-07T03:25:59.813Z,0.90
2018-12-07T03:28:28.365Z,1.00
2018-12-07T03:30:56.930Z,1.10
2018-12-07T03:33:25.454Z,1.03
2018-12-07T03:35:53.973Z,0.77
2018-12-07T03:38:24.029Z,1.00
2018-12-07T03:40:52.528Z,0.90
2018-12-07T03:43:21.046Z,0.80
2018-12-07T03:45:49.552Z,0.93
2018-12-07T03:48:18.095Z,0.93
2018-12-07T03:50:46.613Z,0.90
2018-12-07T03:53:15.157Z,0.97
2018-12-07T03:55:43.664Z,0.90
2018-12-07T03:58:12.232Z,0.80
2018-12-07T04:00:40.754Z,0.80
2018-12-07T04:03:09.281Z,1.20
2018-12-07T04:05:37.775Z,0.90
2018-12-07T04:08:07.778Z,1.07
2018-12-07T04:10:36.553Z,1.20
2018-12-07T04:13:05.096Z,0.90
2018-12-07T04:15:33.636Z,1.03
2018-12-07T04:18:02.188Z,1.10
2018-12-07T04:20:30.732Z,0.90
2018-12-07T04:22:59.251Z,1.17
2018-12-07T04:25:27.782Z,0.80
2018-12-07T04:27:56.277Z,0.83
2018-12-07T04:30:28.304Z,0.90
2018-12-07T04:32:57.964Z,1.00
2018-12-07T04:35:27.055Z,1.00
2018-12-07T04:37:55.580Z,1.00
2018-12-07T04:40:24.229Z,0.90
2018-12-07T04:42:52.961Z,0.90
2018-12-07T04:45:21.493Z,0.80
2018-12-07T04:47:49.984Z,0.80
2018-12-07T04:50:18.500Z,0.93
2018-12-07T04:52:48.785Z,0.90
2018-12-07T04:55:17.317Z,0.80
2018-12-07T04:57:45.817Z,0.80
2018-12-07T05:00:15.299Z,1.20
2018-12-07T05:02:43.812Z,0.90
2018-12-07T05:05:12.808Z,0.90
2018-12-07T05:07:41.373Z,0.80
2018-12-07T05:10:09.963Z,1.03
2018-12-07T05:12:38.461Z,0.70
2018-12-07T05:15:07.583Z,0.90
2018-12-07T05:17:36.081Z,0.83
2018-12-07T05:20:05.747Z,0.93
2018-12-07T05:22:34.367Z,0.90
2018-12-07T05:25:02.902Z,1.10
2018-12-07T05:27:31.533Z,0.70
2018-12-07T05:30:01.110Z,0.70
2018-12-07T05:32:29.689Z,0.80
2018-12-07T05:34:58.222Z,0.63
2018-12-07T05:37:26.960Z,0.77
2018-12-07T05:39:55.501Z,0.63
2018-12-07T05:42:24.033Z,0.60
2018-12-07T05:44:52.753Z,0.63
2018-12-07T05:47:21.264Z,0.80
2018-12-07T05:49:49.809Z,0.73
2018-12-07T05:52:18.338Z,0.70
2018-12-07T05:54:46.874Z,0.83
2018-12-07T05:57:15.384Z,0.90
2018-12-07T05:59:43.934Z,1.00
2018-12-07T06:02:12.446Z,0.73
2018-12-07T06:04:41.329Z,0.90
2018-12-07T06:07:10.056Z,0.80
2018-12-07T06:09:38.707Z,0.70
2018-12-07T06:12:07.505Z,0.70
2018-12-07T06:14:36.919Z,0.77
2018-12-07T06:17:05.842Z,1.00
2018-12-07T06:19:35.385Z,0.60
2018-12-07T06:22:04.266Z,0.70
2018-12-07T06:24:34.513Z,0.70
2018-12-07T06:27:03.248Z,0.80
2018-12-07T06:29:31.779Z,0.80
2018-12-07T06:32:00.660Z,0.83
2018-12-07T06:34:29.164Z,0.70
2018-12-07T06:36:57.678Z,0.60
2018-12-07T06:39:26.195Z,0.63
2018-12-07T06:41:54.818Z,0.80
2018-12-07T06:44:23.538Z,0.80
2018-12-07T06:47:01.846Z,1.20
2018-12-07T06:49:30.339Z,1.00
2018-12-07T06:51:59.246Z,0.70
2018-12-07T06:54:28.177Z,0.83
2018-12-07T06:56:57.292Z,0.83
2018-12-07T06:59:26.993Z,0.77
2018-12-07T07:01:55.625Z,1.17
2018-12-07T07:04:25.049Z,0.70
2018-12-07T07:06:53.592Z,0.80
2018-12-07T07:09:22.957Z,1.00
2018-12-07T07:11:52.482Z,0.90
2018-12-07T07:14:20.996Z,0.80
2018-12-07T07:16:49.526Z,0.83
2018-12-07T07:19:18.050Z,0.90
2018-12-07T07:21:46.732Z,0.80
2018-12-07T07:24:15.262Z,0.90
2018-12-07T07:26:44.634Z,0.70
2018-12-07T07:29:13.150Z,0.73
2018-12-07T07:31:43.572Z,0.80
2018-12-07T07:34:10.828Z,0.90
2018-12-07T07:36:39.348Z,0.97
2018-12-07T07:39:08.241Z,0.70
2018-12-07T07:41:37.068Z,0.60
2018-12-07T07:44:05.575Z,0.80
2018-12-07T07:46:34.105Z,0.60
2018-12-07T07:49:02.840Z,0.70
2018-12-07T07:51:31.631Z,0.77
2018-12-07T07:54:01.076Z,0.70
2018-12-07T07:56:29.840Z,0.80
2018-12-07T07:58:58.352Z,0.70
2018-12-07T08:01:26.898Z,0.90
2018-12-07T08:03:56.475Z,0.50
2018-12-07T08:06:25.003Z,0.73
2018-12-07T08:08:53.516Z,0.77
2018-12-07T08:11:22.044Z,0.80
2018-12-07T08:13:50.569Z,0.70
2018-12-07T08:16:19.105Z,0.60
2018-12-07T08:18:47.605Z,0.60
2018-12-07T08:21:16.204Z,0.60
2018-12-07T08:23:44.733Z,0.60
2018-12-07T08:26:13.252Z,1.10
2018-12-07T08:28:42.714Z,0.50
2018-12-07T08:31:12.704Z,0.60
2018-12-07T08:33:41.574Z,1.00
2018-12-07T08:36:10.107Z,0.60
2018-12-07T08:38:38.631Z,0.77
2018-12-07T08:41:07.756Z,0.67
2018-12-07T08:43:36.261Z,0.70
2018-12-07T08:46:04.887Z,0.60
2018-12-07T08:48:33.420Z,0.57
2018-12-07T08:51:01.917Z,0.60
2018-12-07T08:53:30.450Z,0.67
2018-12-07T08:55:58.945Z,0.57
2018-12-07T08:58:27.713Z,0.80
2018-12-07T09:00:56.246Z,0.50
2018-12-07T09:03:24.774Z,0.70
2018-12-07T09:05:53.290Z,0.63
2018-12-07T09:08:21.810Z,0.77
2018-12-07T09:10:50.325Z,0.70
2018-12-07T09:13:19.889Z,0.80
2018-12-07T09:15:50.085Z,0.73
2018-12-07T09:18:18.832Z,0.93
2018-12-07T09:20:53.684Z,1.07
2018-12-07T09:23:16.168Z,0.90
2018-12-07T09:25:45.686Z,1.40
2018-12-07T09:28:15.034Z,1.10
2018-12-07T09:30:44.397Z,1.30
2018-12-07T09:33:14.760Z,1.40
2018-12-07T09:35:43.800Z,0.90
2018-12-07T09:38:13.486Z,1.03
2018-12-07T09:40:42.084Z,1.23
2018-12-07T09:43:10.735Z,1.10
2018-12-07T09:45:39.225Z,1.50
2018-12-07T09:48:08.436Z,0.90
2018-12-07T09:50:37.882Z,1.23
2018-12-07T09:53:06.424Z,1.00
2018-12-07T09:55:34.948Z,1.30
2018-12-07T09:58:03.938Z,1.00
2018-12-07T10:00:32.456Z,0.97
2018-12-07T10:03:01.000Z,1.30
2018-12-07T10:05:29.565Z,0.70
2018-12-07T10:07:58.220Z,0.80
2018-12-07T10:10:26.731Z,0.93
2018-12-07T10:12:55.561Z,1.03
2018-12-07T10:15:24.075Z,0.80
2018-12-07T10:17:53.044Z,0.80
2018-12-07T10:20:21.580Z,0.93
2018-12-07T10:22:50.124Z,0.80
2018-12-07T10:25:18.653Z,0.97
2018-12-07T10:27:48.015Z,0.80
2018-12-07T10:30:17.077Z,0.57
2018-12-07T10:32:45.602Z,0.80
2018-12-07T10:35:14.112Z,0.70
2018-12-07T10:37:42.983Z,0.80
2018-12-07T10:40:11.497Z,0.80
2018-12-07T10:42:40.068Z,0.60
2018-12-07T10:45:08.597Z,0.70
2018-12-07T10:47:37.146Z,0.70
2018-12-07T10:50:06.330Z,0.90
2018-12-07T10:52:35.902Z,0.77
2018-12-07T10:55:04.668Z,0.80
2018-12-07T10:57:33.457Z,0.80
2018-12-07T11:00:01.980Z,0.80
2018-12-07T11:02:35.751Z,0.80
2018-12-07T11:05:09.654Z,0.80
2018-12-07T11:09:44.580Z,1.00
2018-12-07T11:12:18.212Z,0.73
2018-12-07T11:14:52.012Z,1.00
2018-12-07T11:19:27.887Z,0.70
2018-12-07T11:22:01.525Z,1.00
2018-12-07T11:24:35.464Z,1.60
2018-12-07T11:27:09.157Z,1.20
2018-12-07T11:29:42.943Z,1.20
2018-12-07T11:32:17.096Z,0.87
2018-12-07T11:34:48.861Z,1.30
2018-12-07T11:37:17.378Z,1.13
2018-12-07T11:39:45.908Z,1.30
2018-12-07T11:42:15.524Z,1.10
2018-12-07T11:44:44.286Z,1.20
2018-12-07T11:47:13.169Z,0.80
2018-12-07T11:49:41.697Z,1.00
2018-12-07T11:52:10.501Z,1.20
2018-12-07T11:54:39.747Z,1.10
2018-12-07T11:57:08.530Z,1.00
2018-12-07T11:59:37.044Z,1.00
2018-12-07T12:02:05.691Z,1.10
2018-12-07T12:04:34.279Z,1.20
2018-12-07T12:07:03.211Z,0.90
2018-12-07T12:09:31.717Z,0.90
2018-12-07T12:12:00.262Z,0.80
2018-12-07T12:14:28.787Z,1.00
2018-12-07T12:16:57.316Z,0.90
2018-12-07T12:19:25.821Z,0.90
2018-12-07T12:21:54.460Z,0.97
2018-12-07T12:24:23.084Z,1.03
2018-12-07T12:26:52.689Z,0.50
2018-12-07T12:29:21.275Z,1.23
2018-12-07T12:31:53.404Z,0.90
2018-12-07T12:34:22.231Z,1.00
2018-12-07T12:36:53.100Z,0.87
2018-12-07T12:39:21.612Z,1.00
2018-12-07T12:41:50.132Z,0.73
2018-12-07T12:44:18.639Z,0.70
2018-12-07T12:46:47.168Z,0.73
2018-12-07T12:49:15.672Z,0.80
2018-12-07T12:51:44.331Z,0.73
2018-12-07T12:54:12.816Z,0.70
2018-12-07T12:56:41.348Z,0.93
2018-12-07T12:59:09.857Z,0.63
2018-12-07T13:01:38.396Z,0.70
2018-12-07T13:04:06.906Z,1.00
2018-12-07T13:06:35.472Z,0.70
2018-12-07T13:09:05.967Z,1.17
2018-12-07T13:11:34.497Z,1.00
2018-12-07T13:14:02.992Z,0.60
2018-12-07T13:16:31.836Z,0.70
2018-12-07T13:19:04.036Z,0.60
2018-12-07T13:21:32.563Z,0.80
2018-12-07T13:24:01.064Z,0.70
2018-12-07T13:26:31.086Z,0.50
2018-12-07T13:28:59.590Z,0.60
2018-12-07T13:31:28.241Z,0.70
2018-12-07T13:33:56.730Z,0.90
2018-12-07T13:36:25.255Z,0.80
2018-12-07T13:38:54.115Z,0.70
2018-12-07T13:41:23.703Z,0.67
2018-12-07T13:43:54.073Z,0.40
2018-12-07T13:46:22.634Z,0.40
2018-12-07T13:48:51.360Z,0.60
2018-12-07T13:51:20.319Z,0.70
2018-12-07T13:53:48.860Z,0.53
2018-12-07T13:56:17.368Z,0.57
2018-12-07T13:58:46.179Z,0.57
2018-12-07T14:01:15.867Z,0.43
2018-12-07T14:03:44.354Z,0.60
2018-12-07T14:06:12.917Z,1.00
2018-12-07T14:08:41.629Z,0.70
2018-12-07T14:11:10.326Z,1.00
2018-12-07T14:13:39.594Z,0.70
2018-12-07T14:16:08.200Z,0.80
2018-12-07T14:18:36.715Z,0.80
2018-12-07T14:21:05.222Z,0.60
2018-12-07T14:23:33.748Z,0.63
2018-12-07T14:26:03.366Z,0.70
2018-12-07T14:28:31.912Z,0.53
2018-12-07T14:31:00.491Z,0.80
2018-12-07T14:33:30.052Z,0.53
2018-12-07T14:35:58.750Z,0.93
2018-12-07T14:38:27.687Z,0.50
2018-12-07T14:40:56.253Z,0.60
2018-12-07T14:43:24.828Z,0.60
2018-12-07T14:45:53.621Z,0.73
2018-12-07T14:48:22.412Z,0.67
2018-12-07T14:50:50.904Z,0.60
2018-12-07T14:53:19.467Z,0.60
2018-12-07T14:55:47.985Z,0.63
2018-12-07T14:58:26.616Z,0.50
2018-12-07T15:00:55.081Z,0.70
2018-12-07T15:03:23.613Z,0.77
2018-12-07T15:05:52.402Z,0.67
2018-12-07T15:08:21.016Z,0.40
2018-12-07T15:10:49.662Z,0.50
2018-12-07T15:13:19.898Z,0.73
2018-12-07T15:15:49.212Z,0.50
2018-12-07T15:18:18.837Z,0.57
2018-12-07T15:20:47.669Z,0.60
2018-12-07T15:23:16.080Z,0.60
2018-12-07T15:25:44.588Z,0.40
2018-12-07T15:28:13.411Z,0.50
2018-12-07T15:30:42.748Z,0.50
2018-12-07T15:33:11.462Z,0.70
2018-12-07T15:35:40.060Z,0.60
2018-12-07T15:38:09.688Z,0.83
2018-12-07T15:40:39.929Z,0.60
2018-12-07T15:43:08.568Z,0.60
2018-12-07T15:45:37.059Z,0.50
2018-12-07T15:48:05.681Z,0.87
2018-12-07T15:50:34.471Z,0.70
2018-12-07T15:53:03.455Z,0.50
2018-12-07T15:55:31.960Z,0.60
2018-12-07T15:58:00.667Z,0.30
2018-12-07T16:00:29.055Z,0.57
2018-12-07T16:03:01.756Z,0.40
2018-12-07T16:05:30.475Z,0.40
2018-12-07T16:07:59.197Z,0.70
2018-12-07T16:10:27.783Z,0.70
2018-12-07T16:12:56.097Z,0.80
2018-12-07T16:15:26.134Z,0.90
2018-12-07T16:17:54.698Z,0.87
2018-12-07T16:20:24.039Z,1.10
2018-12-07T16:22:52.809Z,0.67
2018-12-07T16:25:21.456Z,1.00
2018-12-07T16:27:50.048Z,1.23
2018-12-07T16:30:20.007Z,1.30
2018-12-07T16:32:48.560Z,1.13
2018-12-07T16:35:17.283Z,0.90
2018-12-07T16:37:53.710Z,1.63
2018-12-07T16:40:22.606Z,1.80
2018-12-07T16:42:51.000Z,1.20
2018-12-07T16:45:20.206Z,1.10
2018-12-07T16:47:48.793Z,1.17
2018-12-07T16:50:18.678Z,1.50
2018-12-07T16:52:47.312Z,1.50
2018-12-07T16:55:15.686Z,1.33
2018-12-07T16:57:44.373Z,0.97
2018-12-07T17:00:13.130Z,1.60
2018-12-07T17:02:41.524Z,1.40
2018-12-07T17:05:10.993Z,2.27
2018-12-07T17:07:39.836Z,1.03
2018-12-07T17:10:08.707Z,1.07
2018-12-07T17:12:36.993Z,1.33
2018-12-07T17:15:06.357Z,1.17
2018-12-07T17:17:34.809Z,1.00
2018-12-07T17:20:03.439Z,1.47
2018-12-07T17:22:32.218Z,1.93
2018-12-07T17:25:01.004Z,5.73
2018-12-07T17:27:30.700Z,2.33
2018-12-07T17:30:01.811Z,3.27
2018-12-07T17:32:30.583Z,1.90
2018-12-07T17:34:59.321Z,2.20
2018-12-07T17:37:27.919Z,1.63
2018-12-07T17:39:56.543Z,1.53
2018-12-07T17:42:29.513Z,1.23
2018-12-07T17:44:53.699Z,1.23
2018-12-07T17:47:22.223Z,1.40
2018-12-07T17:49:51.067Z,1.30
2018-12-07T17:52:20.827Z,0.93
2018-12-07T17:54:49.376Z,0.87
2018-12-07T17:57:17.976Z,1.27
2018-12-07T17:59:46.576Z,1.10
2018-12-07T18:02:14.969Z,0.80
2018-12-07T18:04:45.284Z,1.20
2018-12-07T18:07:13.796Z,1.20
2018-12-07T18:09:42.439Z,0.80
2018-12-07T18:12:11.037Z,1.20
2018-12-07T18:14:39.651Z,1.00
2018-12-07T18:17:08.930Z,0.93
2018-12-07T18:19:37.454Z,0.70
2018-12-07T18:22:06.931Z,0.67
2018-12-07T18:24:39.369Z,0.90
2018-12-07T18:27:07.987Z,0.53
2018-12-07T18:29:36.412Z,0.87
2018-12-07T18:32:05.650Z,0.77
2018-12-07T18:35:59.533Z,0.77
2018-12-07T18:38:28.240Z,0.60
2018-12-07T18:40:56.835Z,0.90
2018-12-07T18:43:25.430Z,0.97
2018-12-07T18:45:58.191Z,0.90
2018-12-07T18:48:27.377Z,0.90
2018-12-07T18:50:56.040Z,0.87
2018-12-07T18:53:47.641Z,0.70
2018-12-07T18:56:16.230Z,0.60
2018-12-07T18:58:44.997Z,0.87
2018-12-07T19:01:13.856Z,0.93
2018-12-07T19:03:42.465Z,0.70
2018-12-07T19:06:11.123Z,0.53
2018-12-07T19:08:39.568Z,0.60
2018-12-07T19:11:08.648Z,0.70
2018-12-07T19:13:37.395Z,0.70
2018-12-07T19:16:06.085Z,0.50
2018-12-07T19:18:34.814Z,0.80
2018-12-07T19:21:03.394Z,0.80
2018-12-07T19:23:32.389Z,0.57
2018-12-07T19:26:02.163Z,0.90
2018-12-07T19:28:31.854Z,0.50
2018-12-07T19:31:00.315Z,0.70
2018-12-07T19:33:28.910Z,0.50
2018-12-07T19:35:58.283Z,0.90
2018-12-07T19:38:26.959Z,0.77
2018-12-07T19:40:55.491Z,0.63
2018-12-07T19:43:24.347Z,0.70
2018-12-07T19:45:52.829Z,0.50
2018-12-07T19:48:21.639Z,0.90
2018-12-07T19:50:50.408Z,0.87
2018-12-07T19:53:18.810Z,1.00
2018-12-07T19:55:47.372Z,0.70
2018-12-07T19:58:17.479Z,0.50
2018-12-07T20:00:46.089Z,0.63
2018-12-07T20:03:14.741Z,0.70
2018-12-07T20:05:43.471Z,0.80
2018-12-07T20:08:11.853Z,0.67
2018-12-07T20:10:40.469Z,0.77
2018-12-07T20:13:09.735Z,0.50
2018-12-07T20:15:40.453Z,0.60
2018-12-07T20:18:09.757Z,0.50
2018-12-07T20:20:39.723Z,0.63
2018-12-07T20:23:08.366Z,0.60
2018-12-07T20:25:37.023Z,0.80
2018-12-07T20:28:08.184Z,0.83
2018-12-07T20:30:36.830Z,0.50
2018-12-07T20:33:06.192Z,0.50
2018-12-07T20:35:34.957Z,0.60
2018-12-07T20:38:03.567Z,0.60
2018-12-07T20:40:32.081Z,0.70
2018-12-07T20:43:01.173Z,0.90
2018-12-07T20:45:31.130Z,0.70
2018-12-07T20:47:59.836Z,0.80
2018-12-07T20:50:29.305Z,0.70
2018-12-07T20:52:57.788Z,0.73
2018-12-07T20:55:26.729Z,0.63
2018-12-07T20:57:55.640Z,0.70
2018-12-07T21:00:24.561Z,0.70
2018-12-07T21:02:52.844Z,0.77
2018-12-07T21:06:11.959Z,0.90
2018-12-07T21:08:59.607Z,0.77
2018-12-07T21:11:40.053Z,0.70
2018-12-07T21:14:16.788Z,0.77
2018-12-07T21:17:38.752Z,0.80
2018-12-07T21:20:37.971Z,0.60
2018-12-07T21:23:06.490Z,0.80
2018-12-07T21:25:34.857Z,0.60
2018-12-07T21:28:03.388Z,0.73
2018-12-07T21:30:57.464Z,0.90
2018-12-07T21:34:34.700Z,0.63
2018-12-07T21:37:04.569Z,0.80
2018-12-07T21:39:39.643Z,0.60
2018-12-07T21:42:08.230Z,0.87
2018-12-07T21:44:36.997Z,0.80
2018-12-07T21:47:06.303Z,0.80
2018-12-07T21:49:41.135Z,0.90
2018-12-07T21:52:22.631Z,1.10
2018-12-07T21:54:52.200Z,0.90
2018-12-07T21:57:21.868Z,0.80
2018-12-07T21:59:50.766Z,1.10
2018-12-07T22:02:19.622Z,1.00
2018-12-07T22:04:48.078Z,0.70
2018-12-07T22:07:17.462Z,1.00
2018-12-07T22:09:46.924Z,0.80
2018-12-07T22:12:15.602Z,0.80
2018-12-07T22:14:44.514Z,0.80
2018-12-07T22:17:12.778Z,0.70
2018-12-07T22:19:48.191Z,0.70
2018-12-07T22:22:17.632Z,1.10
2018-12-07T22:24:45.972Z,0.93
2018-12-07T22:27:14.470Z,0.80
2018-12-07T22:29:43.049Z,0.93
2018-12-07T22:32:12.806Z,0.90
2018-12-07T22:34:42.619Z,0.60
2018-12-07T22:37:10.916Z,0.90
2018-12-07T22:39:39.657Z,0.80
2018-12-07T22:42:08.225Z,0.90
2018-12-07T22:44:36.847Z,0.93
2018-12-07T22:47:05.819Z,0.90
2018-12-07T22:49:35.253Z,0.90
2018-12-07T22:52:04.707Z,0.70
2018-12-07T22:54:33.216Z,1.00
2018-12-07T22:57:01.733Z,1.13
2018-12-07T22:59:30.256Z,0.83
2018-12-07T23:01:58.791Z,0.90
2018-12-07T23:04:27.298Z,0.80
2018-12-07T23:06:55.809Z,0.83
2018-12-07T23:09:24.749Z,1.00
2018-12-07T23:11:53.260Z,0.90
2018-12-07T23:14:28.089Z,0.80
2018-12-07T23:16:56.598Z,0.80
2018-12-07T23:19:25.133Z,0.63
2018-12-07T23:21:53.860Z,0.90
2018-12-07T23:24:22.568Z,0.80
2018-12-07T23:26:51.104Z,0.87
2018-12-07T23:29:22.312Z,0.90
2018-12-07T23:31:51.050Z,0.93
2018-12-07T23:34:20.226Z,0.80
2018-12-07T23:36:48.843Z,0.83
2018-12-07T23:39:17.352Z,1.00
2018-12-07T23:41:45.850Z,0.80
2018-12-07T23:44:15.311Z,0.90
2018-12-07T23:46:44.856Z,0.80
2018-12-07T23:49:13.636Z,1.00
2018-12-07T23:51:42.157Z,0.70
2018-12-07T23:54:11.081Z,1.00
2018-12-07T23:56:39.816Z,0.90
2018-12-07T23:59:08.856Z,0.90
